Terminal Aerodrome Forecast
Issued by NWS Melbourne, FL

Home | Current Version | Previous Version | Text Only | Print | Product List | Glossary On
Versions: 1 2 3 4 5 6 7 8 9 10 11 12 13 14 15 16 17 18
623
FTUS42 KMLB 011125
TAFMLB
TAF
KMLB 011125Z 0112/0212 00000KT P6SM FEW045
     FM011300 33005KT P6SM SCT030 SCT250
     FM011700 08008KT P6SM SCT035 SCT250
     FM012200 10006KT P6SM VCTS SCT040CB SCT060 BKN250
     FM020300 13004KT P6SM VCSH FEW030 SCT060 BKN250=

USA.gov is the U.S. government's official web portal to all federal, state and local government web resources and services.